首页
METAR-TAF:

METAR-TAF

机场 :

利兹, 英格兰

纬度: 53-52N, 经度: 001-39W, 海拔: 208米

当前天气观测

该预报发布于26分钟前的06:50 UTC
风速10节,风向西转西北
温度 6°C
湿度 87%
气压 1010 hPa
能见度10公里或以上
散云层高于2100英尺
散云层高于2800英尺

METAR: EGNM 200650Z 30010KT 9999 SCT021 SCT028 06/04 Q1010

时间: 08:16 (07:16 UTC)

预报

该预报发布于2小时和21分钟前的04:55 UTC
预报有效从20日的 06点(UTC)到 21日的 06点(UTC)
风速9节,风向西转西北
能见度10公里或以上
散云层高于2200英尺
几率 30% :
短暂存在
从 20日的 06点(UTC)到 20日的 09点(UTC)
能見度: 6000
多云层高于1200英尺
成为
从 20日的 08点(UTC)到 20日的 11点(UTC)
风速10节,风向
几率 30% :
短暂存在
从 20日的 12点(UTC)到 20日的 18点(UTC)
能見度: 6000
多云层高于900英尺
阵雨
几率 30% :
短暂存在
从 20日的 18点(UTC)到 21日的 03点(UTC)
能見度: 9000
多云层高于1000英尺
成为
从 20日的 21点(UTC)到 20日的 24点(UTC)
风速8节,风向西转西北

TAF: EGNM 200455Z 2006/2106 30009KT 9999 SCT022 PROB30 TEMPO 2006/2009 6000 BKN012 BECMG 2008/2011 36010KT PROB30 TEMPO 2012/2018 6000 SHRA BKN009 PROB30 TEMPO 2018/2103 9000 BKN010 BECMG 2021/2024 30008KT

超过4000个机场的气象观测和天气预报(METAR&TAF报告)。

可查询的气象台以黄色和红色小点在地图上表示。

将鼠标移到小点上方,可查看气象台名称。

然后点击查看天气观测和预报。

如需切换地图:点击带黑十字的绿色按钮放大地图;点击带横线的绿色按钮缩小地图;或者点击绿色箭头查看邻近地区的地图。


METAR-TAF: